Meeks, Texas
Current Conditions -  °F | °C
As of 4:55 AM on Friday 28 Nov 2014 (Local Time) from KT35 Reporting Station
Clear Clear  
Wind Chill: 38°   Ceiling: Unl
Heat Index: 38°   Visibility: 10mi
Dew Point: 35°   Wind: 3mph
Humidity: 86%   Direction: 150°SSE
Pressure: 30.33"   Gusts: NA
Location:  30.9882°N, 97.103°W
Report Text: KT35 281055Z AUTO 15003KT 10SM CLR 04/02 A3033 RMK AO2 T00360015
Loading
Personal Weather Stations






























Interactive Weather Map New forecast layout! Learn more

10-Day Weather Forecast

Advertisements
Track Severe Weather on mobile